Time;durP1;ratioP1;P1;durP2;ratioP2;P2;SDS_P1;SDS_P2;PMS_P1;PMS_P2;Temp;Humidity;BMP_temperature;BMP_pressure;BME280_temperature;BME280_humidity;BME280_pressure;Samples;Min_cycle;Max_cycle;Signal;HPM_P1;HPM_P2
2023/12/23 00:02:19;;;;;;;11.93;2.60;;;;;;;3.62;91.21;99423.28;5035857;28;20322;-71
2023/12/23 00:04:48;;;;;;;5.30;1.70;;;;;;;3.60;91.66;99441.13;5035590;28;20699;-71
2023/12/23 00:07:16;;;;;;;7.63;2.10;;;;;;;3.61;90.72;99437.47;5035727;28;20281;-71
2023/12/23 00:09:45;;;;;;;4.87;1.80;;;;;;;3.61;91.41;99448.06;5035770;28;20253;-71
2023/12/23 00:12:15;;;;;;;6.67;2.13;;;;;;;3.57;91.37;99440.41;5035650;28;20199;-71
2023/12/23 00:14:44;;;;;;;9.00;1.80;;;;;;;3.59;90.21;99448.22;5035662;28;20207;-71
2023/12/23 00:17:12;;;;;;;6.20;1.83;;;;;;;3.58;90.29;99459.78;5035228;28;20646;-71
2023/12/23 00:19:41;;;;;;;7.97;2.33;;;;;;;3.54;89.54;99446.00;5035573;28;20210;-71
2023/12/23 00:22:10;;;;;;;9.07;2.43;;;;;;;3.58;89.49;99465.91;5035421;28;20230;-71
2023/12/23 00:24:38;;;;;;;9.63;2.43;;;;;;;3.56;89.90;99464.41;5035170;28;20746;-71
2023/12/23 00:27:07;;;;;;;7.80;2.30;;;;;;;3.50;89.72;99471.09;5035313;28;20768;-71
2023/12/23 00:29:37;;;;;;;10.77;2.33;;;;;;;3.49;89.35;99484.47;5035030;28;20206;-71
2023/12/23 00:32:06;;;;;;;9.03;2.80;;;;;;;3.44;90.29;99489.38;5035364;28;20640;-71
2023/12/23 00:34:35;;;;;;;8.47;2.63;;;;;;;3.39;90.65;99497.72;5035211;28;20245;-71
2023/12/23 00:37:03;;;;;;;9.97;3.10;;;;;;;3.34;90.53;99497.34;5035121;28;20253;-71
2023/12/23 00:39:32;;;;;;;7.53;2.10;;;;;;;3.33;91.33;99500.97;5035410;28;20214;-71
2023/12/23 00:42:01;;;;;;;8.27;2.43;;;;;;;3.33;92.55;99506.25;5035256;28;20297;-71
2023/12/23 00:44:29;;;;;;;10.67;3.50;;;;;;;3.29;92.49;99509.34;5035108;28;20245;-71
2023/12/23 00:46:59;;;;;;;7.80;2.50;;;;;;;3.28;93.15;99513.81;5034977;28;20217;-71
2023/12/23 00:49:28;;;;;;;8.13;2.63;;;;;;;3.26;94.21;99505.16;5034654;28;20245;-71
2023/12/23 00:51:56;;;;;;;10.63;2.80;;;;;;;3.23;94.90;99517.84;5034965;28;20203;-71
2023/12/23 00:54:25;;;;;;;11.27;2.53;;;;;;;3.23;95.19;99531.06;5034595;28;20730;-71
2023/12/23 00:56:53;;;;;;;10.10;2.83;;;;;;;3.22;94.74;99535.50;5035081;28;20211;-71
2023/12/23 00:59:22;;;;;;;9.47;2.70;;;;;;;3.16;94.75;99540.53;5034495;28;20749;-71
2023/12/23 01:01:50;;;;;;;11.23;2.90;;;;;;;3.13;95.63;99541.66;5034700;28;20206;-71
2023/12/23 01:04:20;;;;;;;10.83;2.63;;;;;;;3.11;95.44;99545.44;5034656;28;20242;-71
2023/12/23 01:06:49;;;;;;;9.17;2.33;;;;;;;3.09;96.42;99556.13;5034697;28;20256;-71
2023/12/23 01:09:18;;;;;;;10.10;2.50;;;;;;;3.10;95.81;99552.53;5034469;28;20313;-71
2023/12/23 01:11:46;;;;;;;7.57;2.50;;;;;;;3.10;95.72;99568.41;5034578;28;20206;-71
2023/12/23 01:14:15;;;;;;;10.53;2.60;;;;;;;3.10;96.33;99563.09;5034455;28;20227;-71
2023/12/23 01:16:44;;;;;;;11.20;2.37;;;;;;;3.06;95.37;99554.63;5034441;28;20221;-71
2023/12/23 01:19:12;;;;;;;10.13;2.50;;;;;;;3.08;95.79;99567.72;5034325;28;20226;-71
2023/12/23 01:21:42;;;;;;;8.60;2.47;;;;;;;3.08;94.97;99565.88;5034078;28;20664;-71
2023/12/23 01:24:11;;;;;;;10.47;2.50;;;;;;;3.09;95.64;99587.88;5034232;28;20334;-71
2023/12/23 01:26:39;;;;;;;8.70;2.37;;;;;;;3.04;95.71;99593.59;5033967;28;20210;-71
2023/12/23 01:29:08;;;;;;;7.37;1.80;;;;;;;3.03;96.41;99593.72;5033906;28;20759;-70
2023/12/23 01:31:36;;;;;;;12.70;2.70;;;;;;;3.08;96.06;99602.09;5034429;28;20222;-70
2023/12/23 01:34:05;;;;;;;14.73;2.90;;;;;;;2.99;96.30;99602.91;5033805;28;20199;-71
2023/12/23 01:36:33;;;;;;;11.63;2.23;;;;;;;3.08;94.64;99611.81;5034082;28;20225;-71
2023/12/23 01:39:04;;;;;;;8.43;2.50;;;;;;;3.03;95.73;99605.16;5034059;28;20226;-71
2023/12/23 01:41:32;;;;;;;10.17;2.33;;;;;;;2.99;95.98;99593.16;5033652;28;20191;-71
2023/12/23 01:44:01;;;;;;;7.57;2.40;;;;;;;3.02;96.42;99597.34;5034167;28;20322;-71
2023/12/23 01:46:30;;;;;;;11.83;2.73;;;;;;;2.97;96.10;99599.59;5034168;28;20209;-71
2023/12/23 01:48:59;;;;;;;6.53;2.30;;;;;;;2.97;97.15;99599.59;5033738;28;20234;-71
2023/12/23 01:51:29;;;;;;;11.30;3.60;;;;;;;2.90;97.47;99593.19;5033769;28;20211;-71
2023/12/23 01:54:03;;;;;;;8.87;2.80;;;;;;;2.95;97.14;99602.34;5034001;28;20285;-71
2023/12/23 01:56:33;;;;;;;10.97;3.40;;;;;;;2.95;97.57;99590.94;5033576;28;20722;-71
2023/12/23 01:59:03;;;;;;;14.50;4.60;;;;;;;2.94;97.96;99597.22;5033498;28;20231;-71
2023/12/23 02:01:33;;;;;;;12.40;3.77;;;;;;;2.95;97.84;99599.72;5033714;28;20207;-71
2023/12/23 02:04:01;;;;;;;10.77;2.80;;;;;;;2.94;98.03;99600.72;5033624;28;20322;-70
2023/12/23 02:06:30;;;;;;;10.53;3.00;;;;;;;2.93;98.27;99603.47;5033595;28;20657;-70
2023/12/23 02:09:01;;;;;;;8.13;2.30;;;;;;;2.92;97.71;99593.88;5033533;28;20317;-70
2023/12/23 02:11:36;;;;;;;10.03;2.73;;;;;;;2.90;98.85;99598.47;5033679;28;20197;-70
2023/12/23 02:14:20;;;;;;;11.33;2.20;;;;;;;2.93;97.81;99611.41;5033640;28;20191;-70
2023/12/23 02:16:50;;;;;;;12.17;2.43;;;;;;;2.96;97.32;99593.47;5033607;28;20245;-70
2023/12/23 02:19:18;;;;;;;13.13;3.47;;;;;;;2.99;97.41;99605.56;5033453;28;20237;-71
2023/12/23 02:21:48;;;;;;;13.80;2.70;;;;;;;3.00;98.35;99610.72;5033498;28;20207;-71
2023/12/23 02:24:16;;;;;;;13.27;2.47;;;;;;;3.01;98.04;99607.06;5033394;28;20321;-71
2023/12/23 02:26:49;;;;;;;8.37;2.20;;;;;;;3.02;97.53;99613.19;5033462;28;20234;-71
2023/12/23 02:29:20;;;;;;;14.30;2.70;;;;;;;3.00;97.15;99610.72;5033633;28;20317;-71
2023/12/23 02:31:50;;;;;;;10.90;2.50;;;;;;;2.99;96.75;99603.75;5033127;28;20286;-71
2023/12/23 02:34:19;;;;;;;9.77;2.57;;;;;;;3.02;96.74;99602.63;5033391;28;20202;-71
2023/12/23 02:36:49;;;;;;;9.53;3.20;;;;;;;3.01;96.14;99604.44;5033377;28;20576;-71
2023/12/23 02:39:17;;;;;;;14.13;2.50;;;;;;;3.01;96.97;99607.06;5033256;28;20226;-71
2023/12/23 02:41:46;;;;;;;9.63;2.77;;;;;;;3.02;97.00;99605.28;5033325;28;20206;-71
2023/12/23 02:44:14;;;;;;;9.40;2.47;;;;;;;3.01;96.74;99606.25;5033207;28;20234;-71
2023/12/23 02:46:43;;;;;;;14.97;3.53;;;;;;;3.02;96.56;99597.34;5032982;28;20264;-71
2023/12/23 02:49:11;;;;;;;11.30;2.30;;;;;;;3.03;96.50;99604.31;5033110;28;20227;-71
2023/12/23 02:51:40;;;;;;;11.87;2.67;;;;;;;3.04;97.65;99603.34;5033286;28;20241;-71
2023/12/23 02:54:10;;;;;;;10.70;2.50;;;;;;;3.08;96.84;99601.25;5036459;28;20198;-71
2023/12/23 02:56:38;;;;;;;12.80;2.47;;;;;;;3.07;97.56;99595.13;5037151;28;20207;-71
2023/12/23 02:59:07;;;;;;;14.60;2.97;;;;;;;3.08;97.66;99604.72;5037065;28;20226;-71
2023/12/23 03:01:35;;;;;;;9.80;2.80;;;;;;;3.10;98.21;99605.41;5037090;28;20238;-71
2023/12/23 03:04:04;;;;;;;13.23;2.73;;;;;;;3.10;97.56;99600.13;5037044;28;20230;-71
2023/12/23 03:06:33;;;;;;;12.37;2.50;;;;;;;3.11;98.26;99596.50;5036776;28;20301;-71
2023/12/23 03:09:01;;;;;;;13.00;2.60;;;;;;;3.12;98.15;99590.22;5036907;28;20227;-71
2023/12/23 03:11:31;;;;;;;16.97;2.73;;;;;;;3.13;98.32;99594.56;5036922;28;20211;-71
2023/12/23 03:14:00;;;;;;;14.23;2.93;;;;;;;3.16;98.11;99588.13;5037441;28;20202;-71
2023/12/23 03:16:33;;;;;;;10.63;2.30;;;;;;;3.17;97.77;99588.00;5036806;28;20207;-71
2023/12/23 03:19:02;;;;;;;12.90;2.90;;;;;;;3.19;98.28;99599.28;5036462;28;20226;-71
2023/12/23 03:21:31;;;;;;;13.07;2.53;;;;;;;3.22;97.62;99598.19;5036680;28;20222;-71
2023/12/23 03:24:00;;;;;;;13.63;2.77;;;;;;;3.24;97.13;99591.75;5037177;28;20333;-71
2023/12/23 03:26:30;;;;;;;15.10;3.40;;;;;;;3.27;96.70;99590.63;5036650;28;20348;-71
2023/12/23 03:28:58;;;;;;;14.17;2.63;;;;;;;3.28;96.96;99593.16;5036526;28;20314;-71
2023/12/23 03:31:27;;;;;;;10.97;3.00;;;;;;;3.30;96.39;99591.19;5036567;28;20203;-71
2023/12/23 03:33:55;;;;;;;10.17;2.80;;;;;;;3.31;96.89;99598.16;5036487;28;20294;-71
2023/12/23 03:36:24;;;;;;;10.90;3.13;;;;;;;3.31;96.71;99584.94;5036417;28;20218;-71
2023/12/23 03:38:52;;;;;;;13.13;2.43;;;;;;;3.36;96.76;99580.03;5036034;28;20887;-71
2023/12/23 03:41:21;;;;;;;16.13;2.60;;;;;;;3.39;96.75;99587.69;5036424;28;20238;-71
2023/12/23 03:43:51;;;;;;;15.17;3.60;;;;;;;3.40;97.61;99585.88;5035969;28;20688;-71
2023/12/23 03:46:20;;;;;;;13.33;2.80;;;;;;;3.41;99.11;99601.63;5035962;28;20211;-71
2023/12/23 03:48:49;;;;;;;10.53;2.67;;;;;;;3.38;99.84;99593.97;5036047;28;20639;-71
2023/12/23 03:51:17;;;;;;;16.87;3.00;;;;;;;3.36;100.00;99601.19;5035828;28;20681;-71
2023/12/23 03:53:46;;;;;;;10.67;2.60;;;;;;;3.34;100.00;99597.88;5036103;28;20206;-71
2023/12/23 03:56:15;;;;;;;18.80;3.43;;;;;;;3.27;100.00;99588.81;5036059;28;20722;-71
2023/12/23 03:58:43;;;;;;;13.03;3.10;;;;;;;3.19;100.00;99583.41;5035973;28;20226;-71
2023/12/23 04:01:15;;;;;;;14.77;3.00;;;;;;;3.16;100.00;99588.97;5036047;28;20207;-71
2023/12/23 04:03:44;;;;;;;9.63;2.53;;;;;;;3.16;100.00;99586.34;5035607;28;20275;-71
2023/12/23 04:06:13;;;;;;;12.90;2.77;;;;;;;3.11;100.00;99564.78;5036392;28;20226;-70
2023/12/23 04:08:42;;;;;;;13.00;3.20;;;;;;;3.13;100.00;99562.81;5035835;28;20301;-71
2023/12/23 04:11:11;;;;;;;15.77;3.00;;;;;;;3.13;100.00;99565.47;5035829;28;20203;-71
2023/12/23 04:13:39;;;;;;;10.67;2.53;;;;;;;3.15;100.00;99555.56;5035784;28;20215;-71
2023/12/23 04:16:08;;;;;;;15.20;3.17;;;;;;;3.15;100.00;99555.56;5035910;28;20203;-70
2023/12/23 04:18:40;;;;;;;9.73;2.57;;;;;;;3.15;100.00;99552.91;5035622;28;20273;-71
2023/12/23 04:21:10;;;;;;;17.13;3.20;;;;;;;3.16;100.00;99551.13;5035530;28;20631;-70
2023/12/23 04:23:39;;;;;;;14.43;3.10;;;;;;;3.16;100.00;99541.38;5035577;28;20584;-70
2023/12/23 04:26:08;;;;;;;14.53;2.97;;;;;;;3.16;100.00;99543.19;5035434;28;20234;-70
2023/12/23 04:28:36;;;;;;;15.50;3.50;;;;;;;3.17;100.00;99532.47;5035409;28;20226;-70
2023/12/23 04:31:05;;;;;;;10.77;2.73;;;;;;;3.19;100.00;99538.44;5035453;28;20206;-70
2023/12/23 04:33:34;;;;;;;14.03;2.77;;;;;;;3.17;100.00;99535.13;5035622;28;20207;-70
2023/12/23 04:36:05;;;;;;;14.43;2.87;;;;;;;3.21;100.00;99538.31;5035328;28;20253;-70
2023/12/23 04:38:35;;;;;;;16.50;3.00;;;;;;;3.23;100.00;99534.53;5035332;28;20233;-70
2023/12/23 04:41:04;;;;;;;12.27;2.87;;;;;;;3.25;100.00;99540.53;5034970;28;20302;-71
2023/12/23 04:43:32;;;;;;;10.67;2.60;;;;;;;3.28;100.00;99545.53;5035227;28;20260;-71
2023/12/23 04:46:01;;;;;;;14.90;2.83;;;;;;;3.31;100.00;99537.31;5035070;28;20230;-71
2023/12/23 04:48:29;;;;;;;13.07;2.80;;;;;;;3.29;100.00;99523.38;5035019;28;20231;-71
2023/12/23 04:50:58;;;;;;;11.23;2.43;;;;;;;3.33;100.00;99538.00;5034759;28;20210;-71
2023/12/23 04:53:28;;;;;;;14.27;2.83;;;;;;;3.31;100.00;99518.81;5035072;28;20206;-71
2023/12/23 04:55:57;;;;;;;15.17;2.97;;;;;;;3.31;100.00;99525.91;5035005;28;20203;-71
2023/12/23 04:58:26;;;;;;;12.23;2.90;;;;;;;3.30;100.00;99521.56;5034869;28;20253;-71
2023/12/23 05:00:54;;;;;;;14.23;3.10;;;;;;;3.29;100.00;99528.66;5034589;28;20242;-71
2023/12/23 05:03:23;;;;;;;11.37;2.43;;;;;;;3.29;100.00;99531.31;5034831;28;20230;-71
2023/12/23 05:05:52;;;;;;;15.40;3.03;;;;;;;3.29;100.00;99515.44;5034706;28;20309;-71
2023/12/23 05:08:20;;;;;;;16.60;3.30;;;;;;;3.30;100.00;99514.47;5034686;28;20234;-71
2023/12/23 05:10:50;;;;;;;22.63;6.33;;;;;;;3.32;100.00;99512.50;5034697;28;20206;-71
2023/12/23 05:13:19;;;;;;;22.30;5.00;;;;;;;3.31;100.00;99516.16;5034613;28;20234;-71
2023/12/23 05:15:48;;;;;;;16.60;3.73;;;;;;;3.34;100.00;99520.31;5033848;28;20215;-71
2023/12/23 05:18:16;;;;;;;16.47;5.13;;;;;;;3.32;100.00;99507.22;5034489;28;20309;-71
2023/12/23 05:20:45;;;;;;;11.33;3.43;;;;;;;3.33;100.00;99508.91;5034513;28;20256;-71
2023/12/23 05:23:13;;;;;;;13.27;3.13;;;;;;;3.36;100.00;99494.53;5034411;28;20203;-71
2023/12/23 05:25:42;;;;;;;14.30;3.17;;;;;;;3.36;100.00;99498.03;5034075;28;20318;-71
2023/12/23 05:28:12;;;;;;;13.17;3.50;;;;;;;3.36;100.00;99484.78;5034288;28;20233;-71
2023/12/23 05:30:40;;;;;;;14.47;3.20;;;;;;;3.37;100.00;99481.19;5033992;28;20548;-71
2023/12/23 05:33:09;;;;;;;10.50;2.20;;;;;;;3.37;100.00;99475.88;5034282;28;20209;-71
2023/12/23 05:35:37;;;;;;;12.33;2.60;;;;;;;3.37;100.00;99475.88;5034237;28;20273;-71
2023/12/23 05:38:06;;;;;;;16.07;2.73;;;;;;;3.40;100.00;99466.81;5034109;28;20233;-71
2023/12/23 05:40:34;;;;;;;14.10;2.50;;;;;;;3.39;100.00;99468.63;5034285;28;20207;-71
2023/12/23 05:43:04;;;;;;;12.73;3.17;;;;;;;3.41;100.00;99469.34;5033748;28;20687;-71
2023/12/23 05:45:34;;;;;;;10.40;2.27;;;;;;;3.41;100.00;99464.03;5033676;28;20774;-71
2023/12/23 05:48:02;;;;;;;10.60;2.33;;;;;;;3.40;100.00;99464.16;5033932;28;20258;-71
2023/12/23 05:50:31;;;;;;;11.50;2.50;;;;;;;3.40;100.00;99465.00;5033591;28;20257;-71
2023/12/23 05:52:59;;;;;;;11.47;2.60;;;;;;;3.40;100.00;99458.88;5033892;28;20295;-71
2023/12/23 05:55:28;;;;;;;11.97;3.00;;;;;;;3.41;100.00;99460.56;5034108;28;20207;-71
2023/12/23 05:57:57;;;;;;;10.17;2.60;;;;;;;3.42;100.00;99449.84;5033743;28;20720;-71
2023/12/23 06:00:25;;;;;;;11.53;2.30;;;;;;;3.41;100.00;99453.47;5033803;28;20230;-71
2023/12/23 06:02:55;;;;;;;11.60;2.50;;;;;;;3.41;100.00;99456.09;5033800;28;20238;-71
2023/12/23 06:05:23;;;;;;;10.07;2.13;;;;;;;3.41;100.00;99442.88;5033739;28;20237;-71
2023/12/23 06:07:52;;;;;;;12.60;2.57;;;;;;;3.41;100.00;99445.53;5033626;28;20254;-71
2023/12/23 06:10:21;;;;;;;9.87;2.30;;;;;;;3.42;100.00;99433.97;5033688;28;20203;-71
2023/12/23 06:12:49;;;;;;;9.17;2.10;;;;;;;3.42;100.00;99431.31;5033622;28;20297;-71
2023/12/23 06:15:18;;;;;;;7.10;1.97;;;;;;;3.41;100.00;99419.06;5033513;28;20214;-71
2023/12/23 06:17:48;;;;;;;15.70;2.23;;;;;;;3.43;100.00;99417.09;5033525;28;20230;-71
2023/12/23 06:20:18;;;;;;;4.53;1.70;;;;;;;3.40;100.00;99408.63;5033507;28;20591;-71
2023/12/23 06:22:47;;;;;;;6.33;1.80;;;;;;;3.39;100.00;99405.13;5033538;28;20628;-71
2023/12/23 06:25:16;;;;;;;8.23;2.07;;;;;;;3.39;100.00;99402.50;5033418;28;20207;-71
2023/12/23 06:27:44;;;;;;;8.53;2.03;;;;;;;3.39;100.00;99410.44;5033302;28;20233;-71
2023/12/23 06:30:14;;;;;;;5.90;1.90;;;;;;;3.39;100.00;99402.50;5033463;28;20211;-71
2023/12/23 06:32:42;;;;;;;5.30;2.03;;;;;;;3.39;100.00;99401.69;5033615;28;20233;-71
2023/12/23 06:35:11;;;;;;;10.87;2.10;;;;;;;3.39;100.00;99397.19;5033390;28;20210;-71
2023/12/23 06:37:41;;;;;;;5.57;1.73;;;;;;;3.37;100.00;99407.09;5033362;28;20254;-71
2023/12/23 06:40:10;;;;;;;8.07;1.70;;;;;;;3.37;100.00;99396.53;5033056;28;20742;-71
2023/12/23 06:42:39;;;;;;;9.30;1.70;;;;;;;3.36;100.00;99388.72;5033338;28;20285;-71
2023/12/23 06:45:08;;;;;;;5.67;1.73;;;;;;;3.35;100.00;99395.84;5033354;28;20202;-71
2023/12/23 06:47:37;;;;;;;6.23;1.60;;;;;;;3.33;100.00;99400.44;5033169;28;20318;-71
2023/12/23 06:50:06;;;;;;;8.77;1.97;;;;;;;3.35;100.00;99387.91;5033156;28;20219;-71
2023/12/23 06:52:35;;;;;;;5.17;2.03;;;;;;;3.35;100.00;99387.91;5033006;28;20213;-71
2023/12/23 06:55:06;;;;;;;7.43;1.97;;;;;;;3.36;100.00;99389.56;5033284;28;20229;-71
2023/12/23 06:57:34;;;;;;;9.10;1.97;;;;;;;3.39;100.00;99380.53;5033155;28;20227;-71
2023/12/23 07:00:07;;;;;;;5.90;1.70;;;;;;;3.36;100.00;99384.28;5033234;28;20274;-71
2023/12/23 07:02:35;;;;;;;3.90;1.50;;;;;;;3.30;100.00;99379.56;5033158;28;20297;-71
2023/12/23 07:05:04;;;;;;;6.20;1.50;;;;;;;3.31;100.00;99375.97;5033426;28;20257;-71
2023/12/23 07:07:33;;;;;;;5.77;1.67;;;;;;;3.33;100.00;99384.56;5033026;28;20300;-71
2023/12/23 07:10:01;;;;;;;4.43;1.60;;;;;;;3.29;100.00;99377.91;5032758;28;20213;-71
2023/12/23 07:12:36;;;;;;;6.23;1.63;;;;;;;3.30;100.00;99373.44;5033131;28;20227;-71
2023/12/23 07:15:06;;;;;;;2.70;1.60;;;;;;;3.27;100.00;99374.59;5032767;28;20616;-71
2023/12/23 07:17:35;;;;;;;5.13;1.77;;;;;;;3.25;100.00;99371.25;5032658;28;20700;-71
2023/12/23 07:20:10;;;;;;;6.13;1.60;;;;;;;3.24;100.00;99364.31;5033051;28;20194;-71
2023/12/23 07:22:39;;;;;;;4.00;1.30;;;;;;;3.22;100.00;99366.25;5032984;28;20206;-71
2023/12/23 07:25:08;;;;;;;5.20;1.40;;;;;;;3.21;100.00;99363.75;5033229;28;20211;-71
2023/12/23 07:27:38;;;;;;;3.43;1.50;;;;;;;3.22;100.00;99370.72;5032768;28;20318;-71
2023/12/23 07:30:07;;;;;;;4.73;1.37;;;;;;;3.18;100.00;99364.91;5033242;28;20298;-71
2023/12/23 07:32:36;;;;;;;3.37;1.30;;;;;;;3.20;100.00;99356.81;5032557;28;20555;-71
2023/12/23 07:35:05;;;;;;;3.93;1.60;;;;;;;3.19;100.00;99349.84;5032883;28;20203;-71
2023/12/23 07:37:34;;;;;;;4.70;2.03;;;;;;;3.18;100.00;99350.84;5032749;28;20219;-71
2023/12/23 07:40:04;;;;;;;5.80;2.10;;;;;;;3.17;100.00;99343.88;5035583;28;20210;-71
2023/12/23 07:42:33;;;;;;;3.60;1.40;;;;;;;3.17;100.00;99357.09;5036298;28;20540;-71
2023/12/23 07:45:03;;;;;;;2.30;1.43;;;;;;;3.17;100.00;99352.66;5036051;28;20724;-71
2023/12/23 07:47:32;;;;;;;3.60;1.60;;;;;;;3.20;100.00;99346.22;5036205;28;20241;-71
2023/12/23 07:50:00;;;;;;;2.17;1.23;;;;;;;3.21;100.00;99342.59;5035860;28;20619;-71
2023/12/23 07:52:29;;;;;;;3.23;1.37;;;;;;;3.17;100.00;99338.59;5035897;28;20669;-71
2023/12/23 07:54:58;;;;;;;3.13;1.10;;;;;;;3.17;100.00;99328.00;5036151;28;20257;-71
2023/12/23 07:57:26;;;;;;;4.67;1.50;;;;;;;3.21;100.00;99345.25;5035696;28;20708;-71
2023/12/23 07:59:55;;;;;;;2.53;1.60;;;;;;;3.18;100.00;99349.03;5036046;28;20311;-71
2023/12/23 08:02:25;;;;;;;4.93;1.70;;;;;;;3.20;100.00;99352.34;5035694;28;20743;-71
2023/12/23 08:04:53;;;;;;;2.80;1.63;;;;;;;3.19;100.00;99339.25;5035971;28;20301;-71
2023/12/23 08:07:22;;;;;;;5.00;1.60;;;;;;;3.15;100.00;99344.00;5035988;28;20231;-71
2023/12/23 08:09:51;;;;;;;4.30;1.93;;;;;;;3.10;100.00;99346.28;5035846;28;20214;-71
2023/12/23 08:12:19;;;;;;;5.60;1.90;;;;;;;3.13;100.00;99345.13;5035516;28;20655;-73
2023/12/23 08:14:47;;;;;;;3.87;1.93;;;;;;;3.13;100.00;99343.34;5035769;28;20289;-75
2023/12/23 08:17:16;;;;;;;2.97;1.57;;;;;;;3.07;100.00;99343.94;5035342;28;20227;-73
2023/12/23 08:19:46;;;;;;;2.33;1.60;;;;;;;3.10;100.00;99351.56;5035380;28;20676;-74
2023/12/23 08:22:14;;;;;;;3.73;1.80;;;;;;;3.13;100.00;99345.97;5035621;28;20206;-73
2023/12/23 08:24:43;;;;;;;2.93;1.57;;;;;;;3.13;100.00;99345.13;5035323;28;20325;-74
2023/12/23 08:27:13;;;;;;;3.43;1.70;;;;;;;3.12;100.00;99340.84;5035355;28;20779;-73
2023/12/23 08:29:41;;;;;;;2.10;1.50;;;;;;;3.08;100.00;99333.19;5035518;28;20207;-71
2023/12/23 08:32:10;;;;;;;3.23;1.40;;;;;;;3.11;100.00;99347.13;5035228;28;20660;-71
2023/12/23 08:34:38;;;;;;;4.10;1.60;;;;;;;3.05;100.00;99344.06;5035207;28;20698;-71
2023/12/23 08:37:08;;;;;;;3.53;1.80;;;;;;;3.11;100.00;99340.00;5035321;28;20302;-71
2023/12/23 08:39:36;;;;;;;3.97;1.57;;;;;;;3.09;100.00;99344.59;5035362;28;20289;-71
2023/12/23 08:42:05;;;;;;;2.37;1.57;;;;;;;3.14;100.00;99358.22;5035287;28;20293;-71
2023/12/23 08:44:34;;;;;;;2.20;2.00;;;;;;;3.12;100.00;99343.50;5034923;28;20672;-71
2023/12/23 08:47:03;;;;;;;3.93;2.03;;;;;;;3.08;100.00;99335.84;5034711;28;20762;-71
2023/12/23 08:49:31;;;;;;;2.53;1.57;;;;;;;3.10;100.00;99335.69;5034420;28;20219;-71
2023/12/23 08:52:00;;;;;;;1.87;1.73;;;;;;;3.12;100.00;99339.00;5034416;28;20206;-71
2023/12/23 08:54:30;;;;;;;2.17;1.70;;;;;;;3.09;100.00;99334.03;5035034;28;20236;-71
2023/12/23 08:56:59;;;;;;;3.83;1.97;;;;;;;3.11;100.00;99341.81;5034918;28;20199;-71
2023/12/23 08:59:27;;;;;;;3.33;2.10;;;;;;;3.13;100.00;99334.56;5034959;28;20238;-71
2023/12/23 09:02:01;;;;;;;3.57;2.20;;;;;;;3.09;100.00;99349.88;5034838;28;20297;-71
2023/12/23 09:04:29;;;;;;;2.20;2.00;;;;;;;3.08;100.00;99349.06;5034884;28;20187;-71
2023/12/23 09:06:58;;;;;;;4.37;2.30;;;;;;;3.07;100.00;99351.84;5034659;28;20317;-71
2023/12/23 09:09:28;;;;;;;3.20;2.00;;;;;;;3.08;100.00;99342.97;5034953;28;20210;-71
2023/12/23 09:11:57;;;;;;;4.37;1.97;;;;;;;3.05;100.00;99353.81;5034385;28;20668;-71
2023/12/23 09:14:26;;;;;;;3.70;1.87;;;;;;;3.01;100.00;99353.25;5034656;28;20692;-71
2023/12/23 09:16:55;;;;;;;4.50;1.93;;;;;;;3.04;100.00;99357.44;5034505;28;20297;-71
2023/12/23 09:19:23;;;;;;;2.60;1.80;;;;;;;3.03;100.00;99351.31;5034217;28;20583;-71
2023/12/23 09:21:52;;;;;;;2.90;1.70;;;;;;;3.01;100.00;99341.88;5034496;28;20211;-71
2023/12/23 09:24:21;;;;;;;2.60;1.60;;;;;;;3.01;100.00;99352.44;5035018;28;20214;-71
2023/12/23 09:26:50;;;;;;;1.77;1.40;;;;;;;3.00;100.00;99350.78;5034058;28;20305;-71
2023/12/23 09:29:19;;;;;;;1.67;1.57;;;;;;;3.04;100.00;99354.81;5034609;28;20313;-71
2023/12/23 09:31:48;;;;;;;2.67;1.60;;;;;;;3.01;100.00;99361.19;5034343;28;20221;-71
2023/12/23 09:34:16;;;;;;;2.37;1.53;;;;;;;2.96;100.00;99349.41;5034292;28;20210;-71
2023/12/23 09:36:45;;;;;;;1.53;1.43;;;;;;;2.98;100.00;99358.84;5034238;28;20293;-71
2023/12/23 09:39:13;;;;;;;2.60;1.50;;;;;;;3.03;100.00;99366.34;5034167;28;20309;-71
2023/12/23 09:41:42;;;;;;;2.37;1.60;;;;;;;3.04;100.00;99365.38;5034161;28;20210;-71
2023/12/23 09:44:12;;;;;;;2.33;1.40;;;;;;;3.00;100.00;99370.13;5034135;28;20207;-71
2023/12/23 09:46:40;;;;;;;1.40;1.20;;;;;;;3.00;100.00;99371.94;5034065;28;20214;-76
2023/12/23 09:49:09;;;;;;;1.57;1.13;;;;;;;3.00;100.00;99378.06;5034115;28;20276;-75
2023/12/23 09:51:38;;;;;;;2.07;1.77;;;;;;;2.99;100.00;99386.94;5033969;28;20234;-76
2023/12/23 09:54:07;;;;;;;1.50;1.40;;;;;;;2.98;100.00;99389.72;5033878;28;20217;-75
2023/12/23 09:56:36;;;;;;;1.90;1.80;;;;;;;2.98;100.00;99389.72;5033624;28;20210;-75
2023/12/23 09:59:05;;;;;;;1.77;1.67;;;;;;;2.99;100.00;99396.69;5033770;28;20227;-76
2023/12/23 10:01:35;;;;;;;1.93;1.40;;;;;;;2.99;100.00;99391.41;5033506;28;20213;-75
2023/12/23 10:04:03;;;;;;;1.47;1.37;;;;;;;2.95;100.00;99397.94;5033739;28;20237;-75
2023/12/23 10:06:32;;;;;;;1.30;1.20;;;;;;;2.97;100.00;99396.00;5033802;28;20297;-75
2023/12/23 10:09:00;;;;;;;1.60;1.50;;;;;;;2.92;100.00;99395.59;5033741;28;20231;-75
2023/12/23 10:11:29;;;;;;;2.20;1.60;;;;;;;2.97;100.00;99398.66;5034021;28;20206;-76
2023/12/23 10:13:58;;;;;;;1.90;1.80;;;;;;;2.93;100.00;99398.13;5033614;28;20207;-74
2023/12/23 10:16:27;;;;;;;1.70;1.60;;;;;;;2.89;100.00;99398.53;5033310;28;20723;-74
2023/12/23 10:18:57;;;;;;;3.57;2.20;;;;;;;2.91;100.00;99396.59;5033484;28;20223;-76
2023/12/23 10:21:25;;;;;;;4.57;3.40;;;;;;;2.87;100.00;99390.78;5033523;28;20209;-74
2023/12/23 10:23:54;;;;;;;2.73;1.90;;;;;;;2.84;100.00;99393.66;5033470;28;20306;-75
2023/12/23 10:26:23;;;;;;;1.90;1.70;;;;;;;2.87;100.00;99389.94;5033477;28;20214;-74
2023/12/23 10:28:59;;;;;;;3.00;1.90;;;;;;;2.86;100.00;99386.44;5033357;28;20239;-75
2023/12/23 10:31:32;;;;;;;2.63;2.07;;;;;;;2.88;100.00;99388.94;5033526;28;20202;-75
2023/12/23 10:34:11;;;;;;;2.63;2.27;;;;;;;2.88;100.00;99394.22;5033520;28;20282;-75
2023/12/23 10:36:43;;;;;;;2.57;2.33;;;;;;;2.90;100.00;99394.94;5033190;28;20203;-75
2023/12/23 10:39:17;;;;;;;2.70;2.17;;;;;;;2.89;100.00;99388.81;5033277;28;20314;-76
2023/12/23 10:41:52;;;;;;;2.10;1.80;;;;;;;2.83;100.00;99397.31;5033413;28;20281;-76
2023/12/23 10:44:22;;;;;;;2.13;1.90;;;;;;;2.83;100.00;99396.47;5033425;28;20214;-75
2023/12/23 10:46:51;;;;;;;2.33;2.00;;;;;;;2.82;100.00;99402.72;5033289;28;20209;-75
2023/12/23 10:49:24;;;;;;;3.07;2.20;;;;;;;2.81;100.00;99393.97;5033131;28;20238;-75
2023/12/23 10:51:54;;;;;;;2.50;1.90;;;;;;;2.85;100.00;99400.63;5032992;28;20719;-75
2023/12/23 10:54:24;;;;;;;1.70;1.60;;;;;;;2.83;100.00;99391.19;5033128;28;20302;-75
2023/12/23 10:56:55;;;;;;;1.80;1.70;;;;;;;2.87;100.00;99400.50;5033229;28;20207;-75
2023/12/23 10:59:24;;;;;;;1.97;1.70;;;;;;;2.90;100.00;99402.84;5033272;28;20187;-75
2023/12/23 11:01:53;;;;;;;2.00;1.80;;;;;;;2.93;100.00;99394.63;5033145;28;20211;-75
2023/12/23 11:04:25;;;;;;;2.20;1.97;;;;;;;2.93;100.00;99405.22;5033157;28;20219;-75
2023/12/23 11:06:55;;;;;;;2.27;2.03;;;;;;;2.94;100.00;99404.25;5033156;28;20274;-75
2023/12/23 11:09:28;;;;;;;2.10;1.80;;;;;;;2.93;100.00;99407.84;5033103;28;20298;-75
2023/12/23 11:11:58;;;;;;;1.87;1.67;;;;;;;2.93;100.00;99398.13;5033244;28;20203;-75
2023/12/23 11:14:27;;;;;;;2.50;2.30;;;;;;;2.95;100.00;99395.31;5035069;28;20206;-75
2023/12/23 11:16:57;;;;;;;3.37;2.40;;;;;;;2.97;100.00;99410.06;5036731;28;20752;-74
2023/12/23 11:19:27;;;;;;;2.67;2.27;;;;;;;2.99;100.00;99409.91;5036502;28;20256;-75
2023/12/23 11:22:22;;;;;;;2.60;2.40;;;;;;;2.99;100.00;99400.16;5036480;28;20217;-75
2023/12/23 11:24:50;;;;;;;4.23;3.10;;;;;;;2.99;100.00;99399.34;5036761;28;20219;-75
2023/12/23 11:27:33;;;;;;;3.87;3.00;;;;;;;3.04;100.00;99399.75;5036250;28;20712;-75
2023/12/23 11:30:03;;;;;;;5.27;2.60;;;;;;;3.05;100.00;99404.03;5036536;28;20638;-75
2023/12/23 11:32:37;;;;;;;3.20;2.87;;;;;;;3.05;100.00;99399.59;5036608;28;20192;-74
2023/12/23 11:35:11;;;;;;;3.83;2.90;;;;;;;3.05;100.00;99404.03;5036565;28;20194;-75
2023/12/23 11:37:52;;;;;;;3.10;2.33;;;;;;;3.07;100.00;99402.09;5036673;28;20262;-75
2023/12/23 11:40:21;;;;;;;3.00;2.63;;;;;;;3.07;100.00;99410.03;5036433;28;20191;-75
2023/12/23 11:42:51;;;;;;;3.03;2.83;;;;;;;3.07;100.00;99410.03;5036408;28;20213;-75